createdAt,value
2022-08-10T00:01:26.307Z,0.90
2022-08-10T00:04:29.663Z,0.90
2022-08-10T00:07:32.493Z,1.00
2022-08-10T00:10:35.782Z,0.90
2022-08-10T00:13:38.536Z,0.80
2022-08-10T00:16:41.669Z,0.80
2022-08-10T00:20:03.595Z,0.90
2022-08-10T00:23:07.810Z,1.15
2022-08-10T00:26:10.761Z,1.10
2022-08-10T00:29:15.315Z,1.10
2022-08-10T00:32:18.182Z,1.05
2022-08-10T00:35:21.397Z,1.40
2022-08-10T00:38:24.492Z,0.98
2022-08-10T00:41:28.677Z,1.10
2022-08-10T00:44:32.344Z,1.10
2022-08-10T00:47:37.859Z,0.80
2022-08-10T00:50:40.948Z,0.80
2022-08-10T00:53:45.226Z,0.90
2022-08-10T00:57:15.573Z,1.10
2022-08-10T01:00:11.919Z,0.90
2022-08-10T01:03:15.664Z,0.90
2022-08-10T01:06:27.155Z,0.85
2022-08-10T01:09:55.676Z,1.10
2022-08-10T01:13:13.239Z,0.82
2022-08-10T01:16:34.841Z,1.17
2022-08-10T01:19:50.288Z,0.98
2022-08-10T01:23:08.289Z,0.98
2022-08-10T01:26:37.241Z,0.93
2022-08-10T01:30:01.887Z,1.30
2022-08-10T01:33:13.253Z,0.90
2022-08-10T01:36:32.323Z,1.00
2022-08-10T01:39:44.107Z,0.90
2022-08-10T01:42:47.953Z,1.00
2022-08-10T01:45:57.103Z,0.85
2022-08-10T01:49:02.058Z,0.90
2022-08-10T01:52:07.068Z,0.80
2022-08-10T01:55:13.774Z,1.00
2022-08-10T01:58:19.944Z,1.05
2022-08-10T02:01:26.347Z,1.00
2022-08-10T02:04:31.403Z,1.10
2022-08-10T02:07:38.813Z,1.25
2022-08-10T02:14:50.868Z,0.80
2022-08-10T02:18:02.006Z,1.00
2022-08-10T02:21:08.370Z,1.02
2022-08-10T02:24:14.445Z,1.17
2022-08-10T02:27:19.144Z,0.85
2022-08-10T02:30:23.348Z,0.90
2022-08-10T02:33:27.887Z,1.00
2022-08-10T02:36:34.648Z,1.00
2022-08-10T02:39:37.639Z,1.00
2022-08-10T02:45:24.117Z,1.42
2022-08-10T02:46:29.605Z,1.33
2022-08-10T02:49:37.642Z,1.70
2022-08-10T02:52:56.662Z,1.40
2022-08-10T02:56:06.699Z,1.08
2022-08-10T02:59:20.849Z,1.00
2022-08-10T03:02:53.781Z,1.20
2022-08-10T03:18:29.722Z,1.33
2022-08-10T05:16:32.361Z,1.10
2022-08-10T05:20:03.304Z,1.40
2022-08-10T05:22:59.524Z,1.62
2022-08-10T05:26:02.972Z,1.30
2022-08-10T05:29:06.177Z,1.45
2022-08-10T05:32:10.846Z,1.50
2022-08-10T05:35:13.978Z,1.20
2022-08-10T05:38:20.588Z,1.52
2022-08-10T05:41:24.350Z,1.05
2022-08-10T05:44:28.855Z,1.30
2022-08-10T05:48:54.600Z,1.40
2022-08-10T05:50:56.058Z,1.42
2022-08-10T05:54:06.175Z,1.40
2022-08-10T05:57:13.395Z,1.37
2022-08-10T06:00:36.706Z,1.50
2022-08-10T06:03:55.255Z,1.50
2022-08-10T06:07:01.671Z,1.37
2022-08-10T06:10:10.261Z,1.12
2022-08-10T06:13:34.870Z,1.10
2022-08-10T06:16:58.047Z,1.15
2022-08-10T06:20:01.751Z,0.95
2022-08-10T06:23:06.646Z,1.27
2022-08-10T06:26:14.059Z,1.05
2022-08-10T06:29:20.662Z,1.30
2022-08-10T06:32:30.823Z,1.00
2022-08-10T06:35:35.225Z,1.23
2022-08-10T06:38:40.959Z,1.10
2022-08-10T06:45:20.331Z,1.10
2022-08-10T06:48:38.056Z,1.02
2022-08-10T06:51:45.241Z,1.10
2022-08-10T06:55:05.346Z,0.93
2022-08-10T06:58:09.440Z,1.05
2022-08-10T07:01:25.403Z,1.08
2022-08-10T07:04:50.794Z,1.17
2022-08-10T07:07:59.811Z,0.95
2022-08-10T07:40:02.799Z,1.15
2022-08-10T10:51:54.588Z,0.80
2022-08-10T10:55:19.357Z,0.85
2022-08-10T10:59:53.879Z,1.00
2022-08-10T11:03:36.775Z,0.82
2022-08-10T11:07:33.682Z,0.60
2022-08-10T11:10:47.474Z,0.80
2022-08-10T11:14:26.590Z,0.73
2022-08-10T11:18:19.477Z,0.90
2022-08-10T11:22:00.935Z,0.80
2022-08-10T11:26:23.555Z,0.70
2022-08-10T11:30:43.550Z,0.70
2022-08-10T11:34:48.699Z,0.70
2022-08-10T11:39:12.953Z,0.90
2022-08-10T11:42:49.586Z,0.82
2022-08-10T11:46:07.853Z,0.90
2022-08-10T11:50:06.868Z,0.70
2022-08-10T11:53:39.101Z,0.60
2022-08-10T11:57:06.829Z,0.60
2022-08-10T12:00:36.519Z,0.68
2022-08-10T12:10:06.204Z,0.73
2022-08-10T12:12:14.072Z,0.60
2022-08-10T12:15:25.812Z,0.77
2022-08-10T12:18:37.207Z,0.70
2022-08-10T12:21:49.985Z,0.88
2022-08-10T12:25:00.847Z,0.62
2022-08-10T12:28:17.941Z,0.70
2022-08-10T12:31:48.815Z,0.62
2022-08-10T12:34:54.611Z,0.90
2022-08-10T13:28:00.864Z,0.70
2022-08-10T13:51:53.885Z,0.80
2022-08-10T14:08:00.826Z,0.77
2022-08-10T14:32:23.824Z,0.70
2022-08-10T15:00:23.155Z,0.77
2022-08-10T15:03:58.407Z,0.60
2022-08-10T15:07:31.247Z,0.55
2022-08-10T15:10:37.985Z,0.90
2022-08-10T15:14:14.733Z,0.50
2022-08-10T15:17:58.056Z,1.00
2022-08-10T15:21:24.716Z,0.90
2022-08-10T15:24:57.235Z,0.60
2022-08-10T15:28:22.104Z,0.55
2022-08-10T15:32:00.889Z,0.60
2022-08-10T15:35:50.624Z,0.60
2022-08-10T16:12:59.933Z,0.70
2022-08-10T16:17:02.008Z,0.93
2022-08-10T17:02:32.565Z,0.77
2022-08-10T17:06:11.414Z,1.05
2022-08-10T17:38:53.293Z,1.00
2022-08-10T17:42:35.509Z,0.90
2022-08-10T17:46:01.872Z,0.80
2022-08-10T17:49:26.567Z,0.88
2022-08-10T17:52:50.146Z,1.27
2022-08-10T18:21:34.508Z,0.77
2022-08-10T18:52:38.689Z,0.90
2022-08-10T18:56:21.929Z,1.40
2022-08-10T19:00:04.013Z,1.20
2022-08-10T19:03:23.531Z,0.90
2022-08-10T19:07:05.940Z,1.17
2022-08-10T23:03:51.508Z,0.90
